Time;durP1;ratioP1;P1;durP2;ratioP2;P2;SDS_P1;SDS_P2;PMS_P1;PMS_P2;Temp;Humidity;BMP_temperature;BMP_pressure;BME280_temperature;BME280_humidity;BME280_pressure;Samples;Min_cycle;Max_cycle;Signal;HPM_P1;HPM_P2
2022/04/10 00:02:23;;;;;;;;;;;3.10;99.90;;;;;;4975446;28;20009;-79
2022/04/10 00:04:48;;;;;;;;;;;3.00;99.90;;;;;;4974736;28;20438;-79
2022/04/10 00:07:14;;;;;;;;;;;3.10;99.90;;;;;;4977035;28;19921;-78
2022/04/10 00:09:39;;;;;;;;;;;3.10;99.90;;;;;;4978481;28;19926;-78
2022/04/10 00:12:05;;;;;;;;;;;3.10;99.90;;;;;;4978780;28;19928;-79
2022/04/10 00:14:30;;;;;;;;;;;3.00;99.90;;;;;;4971307;28;19965;-79
2022/04/10 00:16:56;;;;;;;;;;;3.00;99.90;;;;;;4977105;28;19932;-79
2022/04/10 00:19:22;;;;;;;;;;;3.10;99.90;;;;;;4978827;28;19922;-79
2022/04/10 00:21:48;;;;;;;;;;;3.00;99.90;;;;;;4979016;28;20327;-79
2022/04/10 00:24:14;;;;;;;;;;;3.00;99.90;;;;;;4978657;28;19976;-79
2022/04/10 00:26:39;;;;;;;;;;;2.90;99.90;;;;;;4990484;28;19968;-79
2022/04/10 00:29:05;;;;;;;;;;;3.00;99.90;;;;;;4978440;28;20398;-79
2022/04/10 00:31:30;;;;;;;;;;;3.00;99.90;;;;;;4978461;28;19926;-78
2022/04/10 00:33:56;;;;;;;;;;;3.00;99.90;;;;;;4994573;28;20312;-78
2022/04/10 00:36:21;;;;;;;;;;;3.00;99.90;;;;;;4977621;28;19975;-79
2022/04/10 00:38:47;;;;;;;;;;;3.10;99.90;;;;;;4978426;28;19981;-79
2022/04/10 00:41:12;;;;;;;;;;;3.10;99.90;;;;;;4978368;28;19932;-79
2022/04/10 00:43:39;;;;;;;;;;;3.10;99.90;;;;;;4978213;28;19928;-78
2022/04/10 00:46:05;;;;;;;;;;;3.10;99.90;;;;;;4977728;28;20261;-79
2022/04/10 00:48:31;;;;;;;;;;;3.20;99.90;;;;;;4970607;28;19933;-78
2022/04/10 00:53:41;;;;;;;;;;;3.10;99.90;;;;;;4977998;28;20049;-79
2022/04/10 00:56:07;;;;;;;;;;;3.00;99.90;;;;;;4977141;28;19964;-79
2022/04/10 00:58:32;;;;;;;;;;;3.10;99.90;;;;;;4961855;28;19972;-79
2022/04/10 01:00:58;;;;;;;;;;;3.00;99.90;;;;;;4962062;28;20479;-78
2022/04/10 01:03:23;;;;;;;;;;;3.00;99.90;;;;;;4977281;28;19921;-79
2022/04/10 01:05:49;;;;;;;;;;;3.00;99.90;;;;;;4976432;28;20384;-79
2022/04/10 01:08:15;;;;;;;;;;;3.00;99.90;;;;;;4977126;28;19925;-78
2022/04/10 01:10:41;;;;;;;;;;;3.10;99.90;;;;;;4977618;28;19977;-79
2022/04/10 01:13:07;;;;;;;;;;;3.10;99.90;;;;;;4961422;28;19926;-79
2022/04/10 01:15:32;;;;;;;;;;;3.10;99.90;;;;;;4966746;28;19922;-79
2022/04/10 01:17:58;;;;;;;;;;;3.20;99.90;;;;;;4977527;28;20423;-78
2022/04/10 01:20:23;;;;;;;;;;;3.20;99.90;;;;;;4977586;28;19943;-79
2022/04/10 01:22:49;;;;;;;;;;;3.20;99.90;;;;;;4977607;28;20420;-79
2022/04/10 01:25:14;;;;;;;;;;;3.20;99.90;;;;;;4977154;28;19922;-78
2022/04/10 01:27:41;;;;;;;;;;;3.20;99.90;;;;;;4969118;28;20016;-78
2022/04/10 01:30:07;;;;;;;;;;;3.20;99.90;;;;;;4961585;28;19926;-78
2022/04/10 01:32:33;;;;;;;;;;;3.20;99.90;;;;;;4975948;28;20319;-79
2022/04/10 01:35:00;;;;;;;;;;;3.10;99.90;;;;;;4976830;28;20009;-78
2022/04/10 01:37:26;;;;;;;;;;;3.10;99.90;;;;;;4976110;28;19964;-79
2022/04/10 01:39:52;;;;;;;;;;;3.00;99.90;;;;;;4977196;28;19962;-78
2022/04/10 01:42:17;;;;;;;;;;;3.00;99.90;;;;;;4977490;28;19944;-79
2022/04/10 01:44:43;;;;;;;;;;;2.90;99.90;;;;;;4977365;28;20012;-78
2022/04/10 01:47:09;;;;;;;;;;;3.00;99.90;;;;;;4975283;28;20385;-78
2022/04/10 01:49:35;;;;;;;;;;;2.90;99.90;;;;;;4977026;28;20295;-78
2022/04/10 01:52:00;;;;;;;;;;;2.90;99.90;;;;;;4976922;28;19922;-78
2022/04/10 01:54:26;;;;;;;;;;;2.90;99.90;;;;;;4976180;28;19928;-78
2022/04/10 01:56:51;;;;;;;;;;;2.80;99.90;;;;;;4975677;28;19922;-78
2022/04/10 01:59:17;;;;;;;;;;;2.80;99.90;;;;;;4973547;28;19949;-78
2022/04/10 02:01:42;;;;;;;;;;;2.80;99.90;;;;;;4989949;28;20277;-78
2022/04/10 02:04:08;;;;;;;;;;;2.80;99.90;;;;;;4957624;28;19934;-78
2022/04/10 02:06:37;;;;;;;;;;;2.80;99.90;;;;;;4967985;28;19976;-79
2022/04/10 02:09:09;;;;;;;;;;;2.90;99.90;;;;;;4976593;28;20300;-78
2022/04/10 02:11:34;;;;;;;;;;;2.90;99.90;;;;;;4976309;28;19953;-79
2022/04/10 02:14:00;;;;;;;;;;;2.90;99.90;;;;;;4976781;28;19926;-78
2022/04/10 02:16:25;;;;;;;;;;;3.00;99.90;;;;;;4975393;28;20431;-79
2022/04/10 02:18:51;;;;;;;;;;;3.00;99.90;;;;;;4960162;28;19921;-78
2022/04/10 02:21:16;;;;;;;;;;;2.90;99.90;;;;;;4992710;28;19985;-78
2022/04/10 02:23:42;;;;;;;;;;;2.90;99.90;;;;;;4975873;28;20005;-78
2022/04/10 02:26:10;;;;;;;;;;;2.90;99.90;;;;;;4975177;28;19936;-78
2022/04/10 02:28:36;;;;;;;;;;;2.80;99.90;;;;;;4975741;28;20007;-78
2022/04/10 02:31:01;;;;;;;;;;;2.90;99.90;;;;;;4975937;28;19984;-78
2022/04/10 02:33:27;;;;;;;;;;;2.90;99.90;;;;;;4975437;28;19922;-78
2022/04/10 02:35:52;;;;;;;;;;;2.90;99.90;;;;;;4974415;28;19962;-79
2022/04/10 02:38:18;;;;;;;;;;;2.90;99.90;;;;;;4975911;28;20015;-78
2022/04/10 02:40:43;;;;;;;;;;;3.00;99.90;;;;;;4975995;28;19997;-78
2022/04/10 02:43:10;;;;;;;;;;;2.90;99.90;;;;;;4975296;28;19933;-79
2022/04/10 02:45:36;;;;;;;;;;;2.90;99.90;;;;;;4974884;28;19921;-79
2022/04/10 02:48:01;;;;;;;;;;;2.80;99.90;;;;;;4975585;28;19932;-78
2022/04/10 02:50:27;;;;;;;;;;;2.70;99.90;;;;;;4975791;28;19925;-78
2022/04/10 02:52:54;;;;;;;;;;;2.70;99.90;;;;;;4975770;28;19921;-78
2022/04/10 02:55:19;;;;;;;;;;;2.70;99.90;;;;;;4975900;28;20047;-78
2022/04/10 02:57:45;;;;;;;;;;;2.70;99.90;;;;;;4974627;28;19957;-79
2022/04/10 03:00:11;;;;;;;;;;;2.80;99.90;;;;;;4976007;28;19961;-78
2022/04/10 03:02:38;;;;;;;;;;;2.90;99.90;;;;;;4975574;28;19956;-79
2022/04/10 03:05:04;;;;;;;;;;;2.90;99.90;;;;;;4971388;28;20297;-78
2022/04/10 03:07:29;;;;;;;;;;;2.90;99.90;;;;;;4971456;28;19929;-78
2022/04/10 03:09:55;;;;;;;;;;;2.90;99.90;;;;;;4975488;28;20347;-79
2022/04/10 03:12:20;;;;;;;;;;;2.90;99.90;;;;;;4975758;28;19922;-78
2022/04/10 03:14:46;;;;;;;;;;;3.00;99.90;;;;;;4975671;28;19932;-78
2022/04/10 03:17:11;;;;;;;;;;;3.00;99.90;;;;;;4973310;28;19969;-78
2022/04/10 03:19:37;;;;;;;;;;;3.00;99.90;;;;;;4974129;28;19972;-78
2022/04/10 03:22:02;;;;;;;;;;;3.00;99.90;;;;;;4975328;28;19922;-78
2022/04/10 03:24:28;;;;;;;;;;;2.90;99.90;;;;;;4975315;28;20299;-78
2022/04/10 03:26:53;;;;;;;;;;;2.90;99.90;;;;;;4974116;28;19984;-79
2022/04/10 03:29:19;;;;;;;;;;;2.90;99.90;;;;;;4975249;28;19935;-78
2022/04/10 03:31:45;;;;;;;;;;;2.90;99.90;;;;;;4975518;28;19928;-78
2022/04/10 03:34:10;;;;;;;;;;;3.00;99.90;;;;;;4974103;28;20183;-79
2022/04/10 03:36:36;;;;;;;;;;;3.10;99.90;;;;;;4969184;28;19962;-80
2022/04/10 03:39:01;;;;;;;;;;;3.20;99.90;;;;;;4983977;28;19929;-81
2022/04/10 03:41:27;;;;;;;;;;;3.20;99.90;;;;;;4983758;28;19977;-82
2022/04/10 03:43:52;;;;;;;;;;;3.20;99.90;;;;;;4987061;28;19977;-81
2022/04/10 03:46:18;;;;;;;;;;;3.20;99.90;;;;;;4982108;28;19929;-81
2022/04/10 03:48:43;;;;;;;;;;;3.20;99.90;;;;;;4986110;28;19926;-82
2022/04/10 03:51:09;;;;;;;;;;;3.20;99.90;;;;;;4982337;28;20409;-80
2022/04/10 03:53:34;;;;;;;;;;;3.20;99.90;;;;;;4981401;28;19998;-80
2022/04/10 03:56:00;;;;;;;;;;;3.20;99.90;;;;;;4975165;28;19991;-80
2022/04/10 03:58:25;;;;;;;;;;;3.10;99.90;;;;;;4975205;28;19928;-79
2022/04/10 04:00:51;;;;;;;;;;;3.20;99.90;;;;;;4974529;28;19921;-79
2022/04/10 04:03:16;;;;;;;;;;;3.10;99.90;;;;;;4974631;28;19932;-79
2022/04/10 04:05:42;;;;;;;;;;;3.10;99.90;;;;;;4973822;28;20280;-79
2022/04/10 04:08:07;;;;;;;;;;;3.10;99.90;;;;;;4974699;28;19934;-79
2022/04/10 04:10:34;;;;;;;;;;;3.10;99.90;;;;;;4974780;28;20354;-79
2022/04/10 04:12:59;;;;;;;;;;;3.20;99.90;;;;;;4974987;28;19921;-79
2022/04/10 04:15:25;;;;;;;;;;;3.20;99.90;;;;;;4973403;28;19996;-79
2022/04/10 04:17:50;;;;;;;;;;;3.20;99.90;;;;;;4974304;28;19929;-80
2022/04/10 04:20:16;;;;;;;;;;;3.20;99.90;;;;;;4975030;28;19951;-79
2022/04/10 04:22:41;;;;;;;;;;;3.20;99.90;;;;;;4991015;28;19929;-79
2022/04/10 04:25:07;;;;;;;;;;;3.20;99.90;;;;;;4973615;28;19921;-79
2022/04/10 04:27:32;;;;;;;;;;;3.10;99.90;;;;;;4974777;28;19922;-79
2022/04/10 04:29:59;;;;;;;;;;;3.10;99.90;;;;;;4974597;28;19970;-79
2022/04/10 04:32:24;;;;;;;;;;;3.10;99.90;;;;;;4976263;28;20009;-81
2022/04/10 04:34:49;;;;;;;;;;;3.10;99.90;;;;;;4985390;28;21049;-82
2022/04/10 04:37:15;;;;;;;;;;;3.10;99.90;;;;;;4998710;28;19933;-80
2022/04/10 04:39:40;;;;;;;;;;;3.10;99.90;;;;;;4983912;28;19922;-81
2022/04/10 04:42:06;;;;;;;;;;;3.00;99.90;;;;;;4982463;28;19926;-81
2022/04/10 04:44:32;;;;;;;;;;;3.00;99.90;;;;;;4983317;28;20005;-81
2022/04/10 04:46:57;;;;;;;;;;;2.90;99.90;;;;;;4995983;28;20332;-81
2022/04/10 04:49:23;;;;;;;;;;;2.90;99.90;;;;;;4985098;28;19980;-81
2022/04/10 04:51:49;;;;;;;;;;;2.90;99.90;;;;;;4981299;28;19922;-81
2022/04/10 04:54:14;;;;;;;;;;;2.80;99.90;;;;;;4983682;28;20016;-80
2022/04/10 04:56:40;;;;;;;;;;;2.80;99.90;;;;;;4979043;28;19922;-80
2022/04/10 04:59:05;;;;;;;;;;;2.80;99.90;;;;;;4978489;28;20300;-80
2022/04/10 05:01:31;;;;;;;;;;;2.90;99.90;;;;;;4978092;28;19970;-80
2022/04/10 05:03:56;;;;;;;;;;;2.90;99.90;;;;;;4978201;28;19932;-79
2022/04/10 05:06:22;;;;;;;;;;;2.90;99.90;;;;;;4976975;28;20097;-79
2022/04/10 05:08:47;;;;;;;;;;;2.90;99.90;;;;;;4977731;28;19949;-79
2022/04/10 05:11:13;;;;;;;;;;;2.80;99.90;;;;;;4977514;28;19922;-79
2022/04/10 05:13:39;;;;;;;;;;;2.80;99.90;;;;;;4978542;28;19926;-79
2022/04/10 05:16:05;;;;;;;;;;;2.80;99.90;;;;;;4977659;28;19984;-79
2022/04/10 05:18:30;;;;;;;;;;;2.80;99.90;;;;;;4978405;28;20013;-79
2022/04/10 05:20:56;;;;;;;;;;;2.80;99.90;;;;;;4977079;28;19926;-79
2022/04/10 05:23:21;;;;;;;;;;;2.70;99.90;;;;;;4978045;28;19921;-79
2022/04/10 05:25:48;;;;;;;;;;;2.70;99.90;;;;;;4977243;28;20336;-79
2022/04/10 05:28:14;;;;;;;;;;;2.80;99.90;;;;;;4977591;28;19929;-79
2022/04/10 05:30:40;;;;;;;;;;;2.70;99.90;;;;;;4977475;28;20016;-79
2022/04/10 05:33:06;;;;;;;;;;;2.80;99.90;;;;;;4978018;28;19977;-79
2022/04/10 05:35:31;;;;;;;;;;;2.90;99.90;;;;;;4982014;28;19976;-78
2022/04/10 05:37:57;;;;;;;;;;;2.90;99.90;;;;;;4983515;28;19926;-79
2022/04/10 05:40:22;;;;;;;;;;;3.00;99.90;;;;;;4991933;28;19921;-79
2022/04/10 05:42:48;;;;;;;;;;;3.10;99.90;;;;;;5009591;28;19929;-79
2022/04/10 05:45:13;;;;;;;;;;;3.30;99.90;;;;;;4994477;28;19937;-80
2022/04/10 05:47:41;;;;;;;;;;;3.30;99.90;;;;;;4996429;28;19969;-79
2022/04/10 05:50:07;;;;;;;;;;;3.30;99.90;;;;;;4982777;28;19936;-79
2022/04/10 05:52:37;;;;;;;;;;;3.30;99.90;;;;;;4997418;28;19922;-79
2022/04/10 05:55:03;;;;;;;;;;;3.40;99.90;;;;;;4996112;28;19933;-80
2022/04/10 05:57:28;;;;;;;;;;;3.40;99.90;;;;;;4994561;28;19921;-81
2022/04/10 05:59:54;;;;;;;;;;;3.50;99.90;;;;;;4994071;28;19921;-80
2022/04/10 06:02:19;;;;;;;;;;;3.40;99.90;;;;;;4991595;28;19969;-81
2022/04/10 06:04:45;;;;;;;;;;;3.50;99.90;;;;;;4977457;28;20451;-81
2022/04/10 06:07:10;;;;;;;;;;;3.40;99.90;;;;;;4982203;28;19945;-81
2022/04/10 06:09:35;;;;;;;;;;;3.40;99.90;;;;;;4983294;28;20337;-81
2022/04/10 06:12:01;;;;;;;;;;;3.40;99.90;;;;;;4983963;28;19972;-80
2022/04/10 06:14:26;;;;;;;;;;;3.30;99.90;;;;;;4983889;28;19921;-81
2022/04/10 06:16:52;;;;;;;;;;;3.40;99.90;;;;;;4999817;28;19982;-80
2022/04/10 06:19:19;;;;;;;;;;;3.50;99.90;;;;;;4984172;28;20396;-80
2022/04/10 06:21:45;;;;;;;;;;;3.60;99.90;;;;;;4984040;28;19922;-81
2022/04/10 06:24:10;;;;;;;;;;;3.80;99.90;;;;;;4983695;28;19922;-80
2022/04/10 06:26:36;;;;;;;;;;;3.90;99.90;;;;;;4974909;28;19933;-81
2022/04/10 06:29:02;;;;;;;;;;;4.00;99.90;;;;;;4982591;28;20348;-80
2022/04/10 06:31:27;;;;;;;;;;;4.10;99.90;;;;;;4983006;28;19985;-80
2022/04/10 06:33:54;;;;;;;;;;;4.10;99.90;;;;;;4986670;28;19964;-79
2022/04/10 06:36:19;;;;;;;;;;;4.10;99.90;;;;;;4981154;28;19922;-80
2022/04/10 06:38:45;;;;;;;;;;;4.10;99.90;;;;;;4984098;28;19922;-80
2022/04/10 06:41:11;;;;;;;;;;;4.20;99.90;;;;;;5002711;28;19922;-80
2022/04/10 06:43:36;;;;;;;;;;;4.20;99.90;;;;;;4982006;28;19926;-80
2022/04/10 06:46:04;;;;;;;;;;;4.20;99.90;;;;;;4987703;28;19926;-80
2022/04/10 06:48:30;;;;;;;;;;;4.20;99.90;;;;;;4986407;28;19926;-80
2022/04/10 06:50:56;;;;;;;;;;;4.20;99.90;;;;;;4985081;28;20016;-80
2022/04/10 06:53:21;;;;;;;;;;;4.30;99.90;;;;;;4977988;28;19922;-80
2022/04/10 06:55:47;;;;;;;;;;;4.40;99.90;;;;;;4984777;28;19921;-80
2022/04/10 06:58:12;;;;;;;;;;;4.50;99.90;;;;;;4987403;28;20249;-80
2022/04/10 07:00:39;;;;;;;;;;;4.60;99.90;;;;;;4986471;28;19921;-80
2022/04/10 07:03:04;;;;;;;;;;;4.60;99.90;;;;;;4987852;28;19925;-80
2022/04/10 07:05:29;;;;;;;;;;;4.60;99.90;;;;;;4970233;28;19922;-80
2022/04/10 07:07:55;;;;;;;;;;;4.70;99.90;;;;;;4987866;28;20330;-80
2022/04/10 07:10:21;;;;;;;;;;;4.60;99.90;;;;;;4986073;28;20340;-80
2022/04/10 07:12:46;;;;;;;;;;;4.60;99.90;;;;;;4972594;28;19926;-81
2022/04/10 07:15:12;;;;;;;;;;;4.60;99.90;;;;;;4982539;28;19997;-80
2022/04/10 07:17:37;;;;;;;;;;;4.60;99.90;;;;;;4981910;28;19929;-80
2022/04/10 07:20:03;;;;;;;;;;;4.50;99.90;;;;;;4980650;28;19929;-80
2022/04/10 07:25:12;;;;;;;;;;;4.10;99.90;;;;;;4983765;28;19972;-80
2022/04/10 07:27:38;;;;;;;;;;;3.90;99.90;;;;;;4982633;28;20408;-81
2022/04/10 07:30:04;;;;;;;;;;;3.90;99.90;;;;;;4997854;28;19928;-82
2022/04/10 07:32:29;;;;;;;;;;;4.00;99.90;;;;;;4981038;28;20376;-82
2022/04/10 07:34:55;;;;;;;;;;;4.00;99.90;;;;;;4983636;28;19925;-81
2022/04/10 07:37:20;;;;;;;;;;;4.20;99.90;;;;;;4982234;28;19973;-81
2022/04/10 07:39:46;;;;;;;;;;;4.30;99.90;;;;;;4983076;28;19921;-81
2022/04/10 07:42:11;;;;;;;;;;;4.50;99.90;;;;;;4982665;28;19925;-81
2022/04/10 07:44:37;;;;;;;;;;;4.60;99.90;;;;;;4982713;28;20347;-81
2022/04/10 07:49:47;;;;;;;;;;;4.90;99.90;;;;;;4980912;28;19929;-81
2022/04/10 07:52:13;;;;;;;;;;;5.20;99.90;;;;;;4982438;28;19933;-81
2022/04/10 07:54:39;;;;;;;;;;;5.50;99.90;;;;;;4979045;28;19922;-82
2022/04/10 07:57:05;;;;;;;;;;;5.70;99.90;;;;;;4962757;28;20004;-81
2022/04/10 07:59:30;;;;;;;;;;;5.80;99.90;;;;;;4981288;28;20439;-81
2022/04/10 08:01:56;;;;;;;;;;;5.80;99.90;;;;;;4983025;28;19926;-81
2022/04/10 08:04:21;;;;;;;;;;;5.70;99.90;;;;;;4981846;28;19922;-81
2022/04/10 08:06:47;;;;;;;;;;;5.70;99.90;;;;;;4982816;28;19921;-81
2022/04/10 08:09:12;;;;;;;;;;;5.70;99.90;;;;;;4981375;28;19925;-80
2022/04/10 08:11:39;;;;;;;;;;;5.80;99.90;;;;;;4981879;28;19974;-81
2022/04/10 08:14:05;;;;;;;;;;;5.90;99.90;;;;;;4962676;28;19965;-80
2022/04/10 08:16:30;;;;;;;;;;;6.20;99.90;;;;;;4963722;28;19969;-81
2022/04/10 08:18:56;;;;;;;;;;;6.40;99.90;;;;;;4963258;28;19929;-81
2022/04/10 08:21:21;;;;;;;;;;;6.60;99.90;;;;;;4977974;28;19928;-79
2022/04/10 08:23:47;;;;;;;;;;;6.80;99.90;;;;;;4980192;28;20017;-80
2022/04/10 08:26:12;;;;;;;;;;;6.90;99.90;;;;;;4981331;28;20357;-80
2022/04/10 08:28:37;;;;;;;;;;;7.00;99.90;;;;;;4982112;28;19926;-80
2022/04/10 08:31:03;;;;;;;;;;;7.10;99.90;;;;;;5001519;28;19922;-81
2022/04/10 08:33:28;;;;;;;;;;;7.30;99.90;;;;;;5003055;28;19929;-81
2022/04/10 08:35:54;;;;;;;;;;;7.40;99.90;;;;;;5002433;28;20044;-80
2022/04/10 08:38:20;;;;;;;;;;;7.50;99.90;;;;;;4978334;28;20013;-81
2022/04/10 08:40:46;;;;;;;;;;;7.70;99.90;;;;;;4980973;28;20027;-80
2022/04/10 08:43:11;;;;;;;;;;;7.70;99.90;;;;;;4986547;28;19921;-80
2022/04/10 08:45:37;;;;;;;;;;;7.70;99.90;;;;;;4984554;28;20482;-80
2022/04/10 08:48:03;;;;;;;;;;;7.60;99.90;;;;;;4968985;28;19926;-81
2022/04/10 08:50:29;;;;;;;;;;;7.80;99.90;;;;;;4967089;28;19929;-79
2022/04/10 08:52:56;;;;;;;;;;;7.90;99.90;;;;;;4986031;28;19926;-79
2022/04/10 08:55:21;;;;;;;;;;;8.00;99.90;;;;;;4984761;28;19986;-81
2022/04/10 08:57:47;;;;;;;;;;;8.20;99.90;;;;;;4985545;28;19972;-81
2022/04/10 09:00:13;;;;;;;;;;;8.30;99.90;;;;;;4985537;28;19945;-80
2022/04/10 09:02:45;;;;;;;;;;;8.30;99.90;;;;;;4984807;28;19922;-80
2022/04/10 09:05:15;;;;;;;;;;;8.40;99.90;;;;;;5001573;28;19921;-80
2022/04/10 09:07:40;;;;;;;;;;;8.30;99.90;;;;;;4985457;28;19921;-80
2022/04/10 09:10:06;;;;;;;;;;;8.40;99.90;;;;;;4983527;28;19928;-80
2022/04/10 09:12:34;;;;;;;;;;;8.50;99.90;;;;;;4976362;28;20344;-80
2022/04/10 09:15:03;;;;;;;;;;;8.30;99.90;;;;;;4964757;28;20002;-81
2022/04/10 09:17:29;;;;;;;;;;;8.20;99.90;;;;;;4981253;28;20357;-80
2022/04/10 09:19:56;;;;;;;;;;;7.90;99.90;;;;;;4985304;28;19922;-80
2022/04/10 09:22:38;;;;;;;;;;;7.90;99.90;;;;;;4984489;28;19921;-81
2022/04/10 09:25:07;;;;;;;;;;;8.10;99.90;;;;;;4985277;28;20385;-81
2022/04/10 09:27:34;;;;;;;;;;;8.60;99.90;;;;;;4982857;28;20001;-81
2022/04/10 09:30:00;;;;;;;;;;;9.00;99.90;;;;;;4984144;28;19934;-81
2022/04/10 09:32:39;;;;;;;;;;;9.00;99.90;;;;;;5000080;28;19932;-81
2022/04/10 09:35:04;;;;;;;;;;;8.80;99.90;;;;;;4983907;28;19928;-81
2022/04/10 09:37:40;;;;;;;;;;;8.70;99.90;;;;;;4984262;28;19928;-80
2022/04/10 09:40:24;;;;;;;;;;;9.10;99.90;;;;;;4983595;28;19926;-81
2022/04/10 09:42:50;;;;;;;;;;;9.30;99.90;;;;;;4980129;28;19932;-80
2022/04/10 09:45:25;;;;;;;;;;;9.40;99.90;;;;;;4976313;28;19922;-80
2022/04/10 09:47:51;;;;;;;;;;;9.30;99.90;;;;;;4984990;28;19928;-80
2022/04/10 09:50:16;;;;;;;;;;;9.10;99.90;;;;;;4983300;28;20020;-81
2022/04/10 09:52:42;;;;;;;;;;;9.00;99.90;;;;;;4984833;28;19957;-80
2022/04/10 09:55:27;;;;;;;;;;;9.00;99.90;;;;;;4983342;28;19921;-80
2022/04/10 09:57:59;;;;;;;;;;;9.00;99.90;;;;;;4999859;28;19998;-80
2022/04/10 10:00:25;;;;;;;;;;;8.80;99.90;;;;;;4983800;28;20411;-80
2022/04/10 10:02:50;;;;;;;;;;;8.90;99.90;;;;;;4987311;28;19922;-80
2022/04/10 10:05:16;;;;;;;;;;;9.20;99.90;;;;;;4992647;28;19928;-80
2022/04/10 10:07:41;;;;;;;;;;;9.10;99.90;;;;;;4991492;28;19929;-80
2022/04/10 10:10:07;;;;;;;;;;;9.10;98.40;;;;;;4988190;28;19929;-80
2022/04/10 10:12:33;;;;;;;;;;;9.40;99.90;;;;;;5006172;28;19921;-80
2022/04/10 10:14:59;;;;;;;;;;;9.70;99.90;;;;;;4993224;28;19921;-80
2022/04/10 10:17:25;;;;;;;;;;;9.90;99.90;;;;;;4985354;28;19933;-80
2022/04/10 10:19:52;;;;;;;;;;;9.80;93.50;;;;;;4987342;28;19921;-80
2022/04/10 10:22:17;;;;;;;;;;;9.50;99.90;;;;;;4987833;28;19922;-80
2022/04/10 10:24:50;;;;;;;;;;;9.30;97.30;;;;;;4988320;28;19929;-80
2022/04/10 10:27:31;;;;;;;;;;;9.40;99.90;;;;;;4986119;28;19932;-81
2022/04/10 10:30:18;;;;;;;;;;;9.70;99.90;;;;;;4987964;28;20098;-80
2022/04/10 10:32:55;;;;;;;;;;;10.10;99.90;;;;;;4983417;28;19922;-81
2022/04/10 10:35:29;;;;;;;;;;;10.50;99.90;;;;;;4980043;28;19974;-80
2022/04/10 10:37:54;;;;;;;;;;;10.80;99.90;;;;;;4984670;28;19922;-80
2022/04/10 10:40:21;;;;;;;;;;;10.40;99.10;;;;;;4986481;28;19989;-80
2022/04/10 10:42:50;;;;;;;;;;;10.10;99.90;;;;;;4986223;28;19941;-80
2022/04/10 10:45:36;;;;;;;;;;;10.20;99.90;;;;;;4985236;28;19922;-79
2022/04/10 10:48:21;;;;;;;;;;;10.30;99.90;;;;;;4987526;28;19949;-80
2022/04/10 10:50:47;;;;;;;;;;;10.20;99.90;;;;;;4985113;28;19926;-80
2022/04/10 10:53:13;;;;;;;;;;;9.80;99.90;;;;;;4987462;28;19944;-80
2022/04/10 10:55:45;;;;;;;;;;;9.60;99.90;;;;;;4985319;28;19934;-80
2022/04/10 10:58:14;;;;;;;;;;;9.40;99.90;;;;;;4988500;28;20384;-80
2022/04/10 11:00:39;;;;;;;;;;;9.40;99.90;;;;;;4986420;28;19924;-80
2022/04/10 11:03:08;;;;;;;;;;;9.80;99.90;;;;;;4986502;28;19928;-80
2022/04/10 11:05:35;;;;;;;;;;;10.30;99.90;;;;;;5003449;28;19922;-80
2022/04/10 11:08:05;;;;;;;;;;;10.70;99.90;;;;;;5002185;28;19921;-80
2022/04/10 11:10:32;;;;;;;;;;;11.10;99.90;;;;;;4985357;28;19922;-80
2022/04/10 11:13:00;;;;;;;;;;;11.20;99.90;;;;;;4986926;28;19981;-80
2022/04/10 11:15:31;;;;;;;;;;;11.30;99.90;;;;;;4986847;28;19973;-80
2022/04/10 11:18:01;;;;;;;;;;;11.30;99.90;;;;;;4993513;28;20088;-80
2022/04/10 11:20:27;;;;;;;;;;;11.10;99.90;;;;;;4993389;28;19926;-80
2022/04/10 11:22:53;;;;;;;;;;;11.40;99.90;;;;;;4994736;28;19968;-81
2022/04/10 11:25:19;;;;;;;;;;;11.60;99.90;;;;;;4992336;28;19922;-80
2022/04/10 11:27:58;;;;;;;;;;;11.70;99.90;;;;;;4993731;28;19964;-80
2022/04/10 11:30:25;;;;;;;;;;;11.80;99.90;;;;;;4995022;28;19977;-80
2022/04/10 11:32:52;;;;;;;;;;;11.90;99.90;;;;;;5011413;28;19929;-81
2022/04/10 11:35:22;;;;;;;;;;;12.00;96.40;;;;;;4991029;28;19963;-81
2022/04/10 11:37:49;;;;;;;;;;;12.00;97.70;;;;;;4973786;28;19925;-81
2022/04/10 11:40:34;;;;;;;;;;;11.80;95.40;;;;;;4989895;28;19922;-81
2022/04/10 11:43:02;;;;;;;;;;;11.90;99.90;;;;;;4990363;28;19922;-81
2022/04/10 11:45:44;;;;;;;;;;;12.00;99.90;;;;;;5004201;28;19925;-81
2022/04/10 11:48:09;;;;;;;;;;;11.60;99.80;;;;;;4970873;28;21155;-81
2022/04/10 11:50:35;;;;;;;;;;;10.90;98.80;;;;;;4987803;28;19921;-81
2022/04/10 11:53:01;;;;;;;;;;;10.30;99.90;;;;;;4984499;28;19926;-81
2022/04/10 11:55:34;;;;;;;;;;;9.70;99.90;;;;;;4987076;28;20381;-80
2022/04/10 11:58:00;;;;;;;;;;;9.40;99.90;;;;;;4985790;28;19922;-80
2022/04/10 12:00:26;;;;;;;;;;;9.50;99.90;;;;;;5003348;28;19961;-80
2022/04/10 12:02:53;;;;;;;;;;;10.00;99.90;;;;;;4988065;28;19921;-81
2022/04/10 12:05:19;;;;;;;;;;;10.50;99.90;;;;;;4989986;28;19922;-81
2022/04/10 12:07:44;;;;;;;;;;;11.00;99.90;;;;;;4970311;28;20392;-81
2022/04/10 12:10:10;;;;;;;;;;;11.30;99.90;;;;;;4991142;28;20033;-81
2022/04/10 12:12:36;;;;;;;;;;;11.70;98.90;;;;;;4991461;28;19928;-81
2022/04/10 12:15:15;;;;;;;;;;;11.90;92.00;;;;;;4991152;28;19922;-81
2022/04/10 12:17:41;;;;;;;;;;;11.40;92.00;;;;;;4988626;28;19929;-81
2022/04/10 12:20:06;;;;;;;;;;;11.00;83.10;;;;;;4990353;28;20379;-81
2022/04/10 12:22:32;;;;;;;;;;;10.60;87.70;;;;;;4987932;28;19949;-81
2022/04/10 12:24:58;;;;;;;;;;;10.40;96.20;;;;;;4989529;28;19921;-80
2022/04/10 12:27:24;;;;;;;;;;;10.30;99.90;;;;;;4974270;28;19929;-80
2022/04/10 12:29:50;;;;;;;;;;;10.10;99.90;;;;;;4990297;28;19926;-80
2022/04/10 12:32:16;;;;;;;;;;;10.00;99.90;;;;;;4988216;28;19965;-80
2022/04/10 12:34:44;;;;;;;;;;;10.10;99.90;;;;;;4980684;28;20139;-80
2022/04/10 12:37:13;;;;;;;;;;;10.30;99.90;;;;;;4988773;28;19985;-80
2022/04/10 12:39:39;;;;;;;;;;;10.80;99.90;;;;;;5007268;28;20045;-80
2022/04/10 12:42:07;;;;;;;;;;;11.20;79.50;;;;;;4990124;28;19949;-80
2022/04/10 12:44:37;;;;;;;;;;;11.70;76.50;;;;;;4990846;28;19968;-81
2022/04/10 12:47:03;;;;;;;;;;;12.20;74.20;;;;;;4989290;28;19976;-80
2022/04/10 12:49:29;;;;;;;;;;;12.40;67.20;;;;;;4986456;28;19933;-81
2022/04/10 12:52:03;;;;;;;;;;;12.30;70.40;;;;;;5006220;28;19930;-81
2022/04/10 12:54:35;;;;;;;;;;;12.50;81.90;;;;;;4987363;28;19941;-80
2022/04/10 12:57:01;;;;;;;;;;;12.10;72.00;;;;;;5005990;28;19922;-81
2022/04/10 12:59:39;;;;;;;;;;;11.20;80.10;;;;;;5005625;28;19976;-80
2022/04/10 13:02:08;;;;;;;;;;;10.50;92.80;;;;;;5005312;28;20008;-80
2022/04/10 13:04:34;;;;;;;;;;;10.30;94.20;;;;;;4986192;28;19922;-79
2022/04/10 13:06:59;;;;;;;;;;;10.20;95.50;;;;;;4988006;28;19980;-80
2022/04/10 13:09:25;;;;;;;;;;;10.60;95.40;;;;;;4986816;28;19929;-80
2022/04/10 13:11:51;;;;;;;;;;;11.30;89.10;;;;;;4989090;28;19922;-80
2022/04/10 13:14:17;;;;;;;;;;;11.80;96.10;;;;;;4986889;28;19944;-80
2022/04/10 13:16:43;;;;;;;;;;;11.80;83.20;;;;;;4986199;28;19925;-81
2022/04/10 13:19:10;;;;;;;;;;;12.10;95.70;;;;;;4999767;28;19929;-81
2022/04/10 13:21:36;;;;;;;;;;;12.70;71.90;;;;;;4983503;28;20010;-80
2022/04/10 13:24:02;;;;;;;;;;;13.00;69.00;;;;;;5004533;28;19921;-81
2022/04/10 13:26:32;;;;;;;;;;;13.30;80.20;;;;;;4987078;28;20447;-81
2022/04/10 13:29:07;;;;;;;;;;;13.30;59.70;;;;;;4987667;28;19933;-80
2022/04/10 13:31:33;;;;;;;;;;;12.80;72.40;;;;;;4986056;28;19921;-81
2022/04/10 13:33:58;;;;;;;;;;;12.40;82.30;;;;;;4995359;28;19933;-81
2022/04/10 13:36:23;;;;;;;;;;;12.40;71.90;;;;;;5012540;28;19929;-80
2022/04/10 13:38:49;;;;;;;;;;;12.20;61.70;;;;;;5012674;28;19988;-80
2022/04/10 13:41:15;;;;;;;;;;;11.70;68.80;;;;;;5008029;28;19933;-80
2022/04/10 13:43:40;;;;;;;;;;;11.30;91.30;;;;;;4993164;28;19909;-80
2022/04/10 13:46:06;;;;;;;;;;;11.20;82.30;;;;;;5009393;28;19929;-80
2022/04/10 13:48:32;;;;;;;;;;;11.20;71.80;;;;;;5008998;28;19926;-80
2022/04/10 13:50:57;;;;;;;;;;;11.70;74.50;;;;;;4971568;28;20005;-80
2022/04/10 13:53:23;;;;;;;;;;;12.20;93.40;;;;;;4985422;28;19960;-80
2022/04/10 13:55:48;;;;;;;;;;;12.70;78.90;;;;;;4987233;28;19932;-79
2022/04/10 13:58:14;;;;;;;;;;;12.70;61.60;;;;;;4988694;28;20429;-80
2022/04/10 14:00:40;;;;;;;;;;;12.90;60.10;;;;;;4986310;28;20373;-80
2022/04/10 14:03:05;;;;;;;;;;;13.50;67.00;;;;;;4987577;28;19922;-81
2022/04/10 14:05:31;;;;;;;;;;;13.70;60.20;;;;;;4987887;28;19925;-81
2022/04/10 14:07:56;;;;;;;;;;;13.90;60.20;;;;;;4989455;28;19937;-80
2022/04/10 14:10:22;;;;;;;;;;;13.90;56.40;;;;;;4988268;28;19922;-81
2022/04/10 14:12:47;;;;;;;;;;;13.60;59.30;;;;;;4988183;28;19945;-81
2022/04/10 14:15:13;;;;;;;;;;;13.50;58.80;;;;;;4985364;28;19974;-80
2022/04/10 14:17:39;;;;;;;;;;;13.50;63.40;;;;;;4986060;28;19922;-81
2022/04/10 14:20:04;;;;;;;;;;;13.90;79.60;;;;;;4987555;28;19922;-81
2022/04/10 14:22:30;;;;;;;;;;;14.50;68.50;;;;;;4987044;28;20411;-81
2022/04/10 14:24:55;;;;;;;;;;;15.40;61.40;;;;;;4986401;28;20380;-81
2022/04/10 14:27:21;;;;;;;;;;;15.80;69.60;;;;;;4986270;28;20021;-80
2022/04/10 14:29:46;;;;;;;;;;;15.80;57.90;;;;;;4979730;28;19930;-80
2022/04/10 14:32:12;;;;;;;;;;;15.40;54.60;;;;;;4982583;28;19925;-81